METAR Data
IDs: Format: Raw Decoded Include TAF

Data at: 0120 UTC 06 Dec 2019

KOWD 060053Z AUTO 27012G18KT 10SM BKN060 02/M08 A2985 RMK AO2 SLP107 T00221083
KOWD 052353Z 26008KT 10SM CLR 03/M08 A2981 RMK AO2 SLP095 T00281083 10067 20028 51036
KOWD 052253Z 25006KT 10SM BKN075 04/M07 A2978 RMK AO2 SLP086 T00391067
KOWD 052153Z 28012KT 10SM OVC065 05/M06 A2975 RMK AO2 SLP074 T00501061
KOWD 052053Z 28006KT 10SM OVC060 06/M04 A2971 RMK AO2 SLP060 T00561044 53033
KOWD 051953Z 30009KT 10SM OVC055 06/M04 A2966 RMK AO2 SLP044 T00561044
KOWD 051853Z 28010KT 10SM OVC050 06/M04 A2964 RMK AO2 SLP037 T00611044
KOWD 051753Z 29013G21KT 10SM CLR 07/M04 A2961 RMK AO2 SLP027 I6000 T00671039 10072 21044 53005
KOWD 051653Z 28009KT 10SM CLR 07/M03 A2960 RMK AO2 SLP024 T00671028
KOWD 051553Z 28011G22KT 10SM CLR 06/M03 A2960 RMK AO2 SLP023 T00611028
KOWD 051453Z 28011KT 10SM CLR 05/M02 A2959 RMK AO2 SLP021 I3000 T00501022 51014
KOWD 051353Z 25004KT 10SM CLR 01/M02 A2958 RMK AO2 SLP018 I1000 T00111022
KOWD 051304Z COR 00000KT 10SM CLR M02/M04 A2957 RMK AO2 I1000 T10171044
KOWD 051300Z 00000KT 1 1/4SM MIFG CLR M02/M05 A2957 RMK AO2 T10221050
KOWD 051253Z 00000KT 10SM MIFG CLR M03/M06 A2957 RMK AO2 SLP013 T10331056
KOWD 051158Z 00000KT 10SM MIFG FEW002 SCT070 M03/M07 A2955 RMK AO2 T10331067
KOWD 051153Z 00000KT 1/4SM HZ VV002 M03/M06 A2955 RMK AO2 SLP007 I1000 I6001 T10331061 10000 21044 51014
KOWD 051148Z 00000KT 1/4SM HZ FEW080 M03/M06 A2955 RMK AO2 I1000
KOWD 051140Z AUTO 00000KT 1 1/2SM HZ FEW080 M04/M07 A2955 RMK AO2 I1000 T10391067
KOWD 051138Z AUTO 00000KT 3SM HZ FEW080 M04/M07 A2955 RMK AO2 I1000 T10441072
KOWD 051131Z AUTO 00000KT 2SM HZ SCT080 M03/M06 A2954 RMK AO2 T10331061
KOWD 051053Z AUTO 00000KT 1/2SM HZ BKN080 OVC120 M03/M06 A2953 RMK AO2 SLP001 I1000 T10281056
KOWD 051038Z AUTO 00000KT 3/4SM HZ OVC120 M03/M06 A2953 RMK AO2 I1000 T10281056
KOWD 051027Z AUTO 00000KT 1 1/2SM BR BKN120 M03/M05 A2952 RMK AO2 VIS 3/4V3 T10281050
KOWD 050953Z AUTO 00000KT 6SM HZ OVC100 M03/M06 A2951 RMK AO2 SLP993 I1000 T10331061
KOWD 050853Z AUTO 00000KT 4SM HZ FEW110 M03/M07 A2949 RMK AO2 SLP987 I3001 T10281067 51007
KOWD 050841Z AUTO 00000KT 3SM HZ CLR M04/M07 A2949 RMK AO2 T10391067
KOWD 050830Z AUTO 00000KT 2SM HZ FEW075 M02/M05 A2949 RMK AO2 T10221050
KOWD 050753Z AUTO 00000KT 1/2SM HZ FEW085 M02/M06 A2949 RMK AO2 SLP985 I1001 T10221056
KOWD 050739Z AUTO 00000KT 1/4SM HZ SCT070 BKN085 M02/M05 A2949 RMK AO2 I1000 T10171050
KOWD 050730Z AUTO 00000KT 1 3/4SM HZ BKN070 OVC085 M02/M05 A2948 RMK AO2 I1000 T10171050
KOWD 050653Z AUTO 00000KT 7SM FEW060 M02/M05 A2948 RMK AO2 SLP983 I1000 T10221050
KOWD 050650Z AUTO 00000KT 4SM HZ FEW060 M02/M05 A2948 RMK AO2 I1000
KOWD 050628Z AUTO 00000KT 1 3/4SM HZ CLR M02/M05 A2948 RMK AO2 I1000 T10221050
KOWD 050553Z AUTO 00000KT 7SM CLR M01/M04 A2947 RMK AO2 SLP980 T10111039 10033 21011 58002
KOWD 050453Z AUTO 00000KT 10SM SCT090 OVC110 01/M03 A2947 RMK AO2 SLP980 T00111028 400391072
KOWD 050353Z AUTO 23003KT 10SM SCT120 02/M02 A2948 RMK AO2 SLP982 T00171022
KOWD 050253Z AUTO 20004KT 10SM FEW060 02/M03 A2948 RMK AO2 SLP981 T00171028 55002
KOWD 050153Z AUTO 00000KT 10SM OVC055 02/M02 A2947 RMK AO2 SLP980 T00221022
KOWD 050053Z 30003KT 10SM OVC050 03/M02 A2948 RMK AO2 SLP983 T00281022
KOWD 042353Z 00000KT 10SM OVC049 02/M02 A2948 RMK AO2 SLP983 T00221017 10039 20017 50005
KOWD 042253Z 00000KT 10SM OVC048 02/M02 A2948 RMK AO2 SLP983 T00221017
KOWD 042153Z 00000KT 10SM OVC045 03/M02 A2947 RMK AO2 SLP980 T00281017
KOWD 042053Z 19003KT 10SM OVC049 03/M02 A2947 RMK AO2 SLP978 T00281017 55005
KOWD 041953Z 19003KT 10SM OVC050 04/M02 A2946 RMK AO2 SLP978 T00391022
KOWD 041853Z 24004KT 10SM OVC060 04/M03 A2947 RMK AO2 SLP979 T00391028
KOWD 041753Z 23005KT 10SM OVC060 03/M03 A2948 RMK AO2 SLP983 T00331028 10033 21061 58017
KOWD 041653Z 23005KT 10SM OVC060 03/M03 A2950 RMK AO2 SLP989 T00281033
KOWD 041553Z 24005KT 10SM FEW060 BKN075 03/M03 A2952 RMK AO2 SLP997 T00281033
KOWD 041453Z 24005KT 10SM FEW070 01/M04 A2953 RMK AO2 SLP000 T00111044 53002
KOWD 041353Z 00000KT 10SM FEW080 M02/M05 A2953 RMK AO2 SLP000 T10171050